Portada
METAR-TAF:

METAR-TAF

Aeropuertos :

Adrian, Míchigan, Estados Unidos

latitud: 41-52-04N, longitud: 084-04-46W, altitud: 244 m

Observación

El informe se hizo hace 41 minutos, a las 14:53 UTC
Viento 3 kt del este-sureste
Temperatura 30°C
Humedad 62%
Presión 1026 hPa
Visibilidad: 16.1 km
Cielo despejado

METAR: KADG 201453Z AUTO 11003KT 10SM CLR 30/22 A3030 RMK AO2 SLP253 T03000222 51005

Hora: 11:34 (15:34 UTC)


TAF: falta

Observaciones y pronósticos meteorológicos de más de 4000 aeropuertos (mensajes METAR y TAF).

Los puntos amarillos y rojos representan las estaciones disponibles.

Ponga el ratón en el punto deseado para ver el nombre de la estación.

Haga clic para ver las observaciones y los pronósticos meteorológicos.

Para cambiar el mapa : haga clic en los botones verdes con una cruz de color negro para hacer un zoom, en el botón verde con un guión para alejar o en las flechas verdes para mapas adyacentes.


METAR-TAF: